Sidney, IA (51652)

2:13 PM CDT on September 03, 2015 (GMT -0500)
North Side of Town | | Change Station
CLOSE
Current Station
Personal Weather Station
Location: Thurman, IA
Elevation: 1007 ft
Nearby Weather Stations

Elev 1007 ft 40.82 °N, 95.75 °W | Updated 10 seconds ago

Clear
Clear
92.6 °F
Feels Like 102 °F
N
2.0
Wind Variable Wind from East
Gusts 3.0 mph

Today
High -- | Low -- °F
--% Chance of Precip.
Yesterday
High -- | Low -- °F
Precip. -- in
6:51 AM 7:51 PM
Waning Gibbous, 68% visible
Pressure 29.87 in
Visibility 10.0 miles
Clouds Clear
Heat Index 102 °F
Dew Point 74 °F
Humidity 54%
Rainfall 0.00 in
Snow Depth Not available.
UV 9 out of 12
Pollen 11.50 out of 12
Air Quality Not available.
Flu Activity Not available.
METAR KSDA 031855Z AUTO 16012KT 10SM CLR 33/22 A2987 RMK AO2
Pressure 29.87 in
Visibility 10.0 miles
Clouds Clear
Heat Index 102 °F
Dew Point 74 °F
Humidity 54%
Rainfall 0.00 in
Snow Depth Not available.
UV 9 out of 12
Pollen 11.50 out of 12
Air Quality Not available.
Flu Activity Not available.
METAR KSDA 031855Z AUTO 16012KT 10SM CLR 33/22 A2987 RMK AO2

10-Day Weather Forecast

×

Almanac

Astronomy

Sep. 03, 2015 Rise Set
Actual Time
Civil Twilight
Nautical Twilight
Astronomical Twilight
Moon
Length of Visible Light
Length of Day
Tomorrow will be .
, % of the Moon is Illuminated

Today's Extremes

State Highs State Lows

Community

WunderPhotos

Upload Photos

1,852,014 photos uploaded!

WunderBlogs® & News

Nearby

Air Quality

  Air Quality AQ Index Pollutant
Not available.

Snow Depth

Station Depth Elevation

Earthquake Activity

City Distance Mag. Time & Date
Minimum magnitude displayed is 2.5.

Coastal Water Temperatures

Place Temperature

Stations

Nearby Weather Stations

Station Location Temp. Windchill Dew Point Humidity Wind Precip. Elev Updated Type